sensor_id;sensor_type;location;lat;lon;timestamp;P1;durP1;ratioP1;P2;durP2;ratioP2
13303;SDS011;6720;51.958;4.540;2023-03-15T00:02:03;5.63;;;2.77;;
13303;SDS011;6720;51.958;4.540;2023-03-15T00:04:29;8.10;;;2.60;;
13303;SDS011;6720;51.958;4.540;2023-03-15T00:07:00;5.13;;;2.67;;
13303;SDS011;6720;51.958;4.540;2023-03-15T00:09:28;3.77;;;2.20;;
13303;SDS011;6720;51.958;4.540;2023-03-15T00:11:53;5.40;;;1.63;;
13303;SDS011;6720;51.958;4.540;2023-03-15T00:14:19;4.60;;;2.63;;
13303;SDS011;6720;51.958;4.540;2023-03-15T00:16:45;5.67;;;2.20;;
13303;SDS011;6720;51.958;4.540;2023-03-15T00:19:10;4.40;;;1.77;;
13303;SDS011;6720;51.958;4.540;2023-03-15T00:21:37;5.67;;;1.97;;
13303;SDS011;6720;51.958;4.540;2023-03-15T00:24:04;5.50;;;2.40;;
13303;SDS011;6720;51.958;4.540;2023-03-15T00:26:30;3.53;;;1.80;;
13303;SDS011;6720;51.958;4.540;2023-03-15T00:28:55;3.57;;;2.00;;
13303;SDS011;6720;51.958;4.540;2023-03-15T00:31:22;4.53;;;1.80;;
13303;SDS011;6720;51.958;4.540;2023-03-15T00:33:49;3.63;;;1.80;;
13303;SDS011;6720;51.958;4.540;2023-03-15T00:36:18;3.20;;;2.40;;
13303;SDS011;6720;51.958;4.540;2023-03-15T00:38:47;6.20;;;3.20;;
13303;SDS011;6720;51.958;4.540;2023-03-15T00:41:14;5.33;;;1.60;;
13303;SDS011;6720;51.958;4.540;2023-03-15T00:43:42;4.13;;;2.70;;
13303;SDS011;6720;51.958;4.540;2023-03-15T00:46:09;3.50;;;1.67;;
13303;SDS011;6720;51.958;4.540;2023-03-15T00:48:35;2.43;;;1.63;;
13303;SDS011;6720;51.958;4.540;2023-03-15T00:51:10;3.77;;;1.70;;
13303;SDS011;6720;51.958;4.540;2023-03-15T00:53:38;4.00;;;1.73;;
13303;SDS011;6720;51.958;4.540;2023-03-15T00:56:13;2.73;;;1.60;;
13303;SDS011;6720;51.958;4.540;2023-03-15T00:58:40;4.37;;;1.87;;
13303;SDS011;6720;51.958;4.540;2023-03-15T01:01:13;2.97;;;1.70;;
13303;SDS011;6720;51.958;4.540;2023-03-15T01:03:40;2.73;;;1.73;;
13303;SDS011;6720;51.958;4.540;2023-03-15T01:06:10;4.03;;;1.60;;
13303;SDS011;6720;51.958;4.540;2023-03-15T01:08:38;2.33;;;1.80;;
13303;SDS011;6720;51.958;4.540;2023-03-15T01:11:05;5.07;;;1.73;;
13303;SDS011;6720;51.958;4.540;2023-03-15T01:13:32;3.87;;;1.80;;
13303;SDS011;6720;51.958;4.540;2023-03-15T01:15:58;3.13;;;1.70;;
13303;SDS011;6720;51.958;4.540;2023-03-15T01:18:23;3.00;;;1.63;;
13303;SDS011;6720;51.958;4.540;2023-03-15T01:20:49;5.30;;;1.73;;
13303;SDS011;6720;51.958;4.540;2023-03-15T01:23:14;7.20;;;2.47;;
13303;SDS011;6720;51.958;4.540;2023-03-15T01:25:40;2.83;;;1.90;;
13303;SDS011;6720;51.958;4.540;2023-03-15T01:28:05;5.57;;;2.40;;
13303;SDS011;6720;51.958;4.540;2023-03-15T01:30:31;2.20;;;1.70;;
13303;SDS011;6720;51.958;4.540;2023-03-15T01:32:56;4.80;;;2.00;;
13303;SDS011;6720;51.958;4.540;2023-03-15T01:35:22;3.40;;;1.87;;
13303;SDS011;6720;51.958;4.540;2023-03-15T01:37:50;6.80;;;2.10;;
13303;SDS011;6720;51.958;4.540;2023-03-15T01:40:16;3.10;;;1.97;;
13303;SDS011;6720;51.958;4.540;2023-03-15T01:42:52;3.77;;;2.00;;
13303;SDS011;6720;51.958;4.540;2023-03-15T01:48:39;4.57;;;1.70;;
13303;SDS011;6720;51.958;4.540;2023-03-15T01:51:31;2.90;;;1.90;;
13303;SDS011;6720;51.958;4.540;2023-03-15T01:56:22;4.07;;;2.10;;
13303;SDS011;6720;51.958;4.540;2023-03-15T01:58:48;6.73;;;2.23;;
13303;SDS011;6720;51.958;4.540;2023-03-15T02:01:16;5.27;;;2.00;;
13303;SDS011;6720;51.958;4.540;2023-03-15T02:03:44;2.53;;;1.90;;
13303;SDS011;6720;51.958;4.540;2023-03-15T02:06:16;3.17;;;2.50;;
13303;SDS011;6720;51.958;4.540;2023-03-15T02:08:54;4.10;;;2.03;;
13303;SDS011;6720;51.958;4.540;2023-03-15T02:11:23;4.80;;;1.80;;
13303;SDS011;6720;51.958;4.540;2023-03-15T02:13:50;4.07;;;2.63;;
13303;SDS011;6720;51.958;4.540;2023-03-15T02:16:17;3.30;;;2.10;;
13303;SDS011;6720;51.958;4.540;2023-03-15T02:18:45;3.73;;;1.90;;
13303;SDS011;6720;51.958;4.540;2023-03-15T02:24:05;3.83;;;2.20;;
13303;SDS011;6720;51.958;4.540;2023-03-15T02:26:53;3.57;;;1.90;;
13303;SDS011;6720;51.958;4.540;2023-03-15T02:32:57;4.03;;;2.00;;
13303;SDS011;6720;51.958;4.540;2023-03-15T02:36:16;4.17;;;1.90;;
13303;SDS011;6720;51.958;4.540;2023-03-15T02:39:18;4.10;;;1.90;;
13303;SDS011;6720;51.958;4.540;2023-03-15T02:42:07;4.37;;;2.40;;
13303;SDS011;6720;51.958;4.540;2023-03-15T02:45:14;2.33;;;1.93;;
13303;SDS011;6720;51.958;4.540;2023-03-15T02:48:10;3.43;;;1.90;;
13303;SDS011;6720;51.958;4.540;2023-03-15T02:50:36;3.43;;;2.00;;
13303;SDS011;6720;51.958;4.540;2023-03-15T02:53:02;3.63;;;2.00;;
13303;SDS011;6720;51.958;4.540;2023-03-15T02:55:29;5.97;;;2.43;;
13303;SDS011;6720;51.958;4.540;2023-03-15T02:57:57;5.87;;;2.40;;
13303;SDS011;6720;51.958;4.540;2023-03-15T03:00:23;3.27;;;2.20;;
13303;SDS011;6720;51.958;4.540;2023-03-15T03:02:49;5.67;;;2.00;;
13303;SDS011;6720;51.958;4.540;2023-03-15T03:05:14;2.80;;;2.00;;
13303;SDS011;6720;51.958;4.540;2023-03-15T03:07:41;5.63;;;2.70;;
13303;SDS011;6720;51.958;4.540;2023-03-15T03:10:13;5.47;;;2.23;;
13303;SDS011;6720;51.958;4.540;2023-03-15T03:12:40;3.03;;;2.23;;
13303;SDS011;6720;51.958;4.540;2023-03-15T03:15:05;3.23;;;1.80;;
13303;SDS011;6720;51.958;4.540;2023-03-15T03:17:32;4.27;;;2.43;;
13303;SDS011;6720;51.958;4.540;2023-03-15T03:20:02;9.73;;;4.20;;
13303;SDS011;6720;51.958;4.540;2023-03-15T03:22:34;5.20;;;2.40;;
13303;SDS011;6720;51.958;4.540;2023-03-15T03:25:00;3.73;;;2.60;;
13303;SDS011;6720;51.958;4.540;2023-03-15T03:27:26;4.97;;;2.70;;
13303;SDS011;6720;51.958;4.540;2023-03-15T03:29:51;3.33;;;2.60;;
13303;SDS011;6720;51.958;4.540;2023-03-15T03:32:17;3.57;;;2.60;;
13303;SDS011;6720;51.958;4.540;2023-03-15T03:34:42;5.03;;;2.70;;
13303;SDS011;6720;51.958;4.540;2023-03-15T03:37:12;8.27;;;2.60;;
13303;SDS011;6720;51.958;4.540;2023-03-15T03:39:41;6.27;;;3.50;;
13303;SDS011;6720;51.958;4.540;2023-03-15T03:42:07;5.50;;;2.30;;
13303;SDS011;6720;51.958;4.540;2023-03-15T03:44:32;3.27;;;1.90;;
13303;SDS011;6720;51.958;4.540;2023-03-15T03:46:58;3.17;;;1.90;;
13303;SDS011;6720;51.958;4.540;2023-03-15T03:49:23;4.40;;;2.70;;
13303;SDS011;6720;51.958;4.540;2023-03-15T03:51:48;1.97;;;1.80;;
13303;SDS011;6720;51.958;4.540;2023-03-15T03:54:14;5.40;;;1.63;;
13303;SDS011;6720;51.958;4.540;2023-03-15T03:56:39;6.67;;;3.57;;
13303;SDS011;6720;51.958;4.540;2023-03-15T03:59:04;3.73;;;1.63;;
13303;SDS011;6720;51.958;4.540;2023-03-15T04:01:30;3.47;;;1.77;;
13303;SDS011;6720;51.958;4.540;2023-03-15T04:03:55;4.97;;;1.70;;
13303;SDS011;6720;51.958;4.540;2023-03-15T04:06:21;2.50;;;1.70;;
13303;SDS011;6720;51.958;4.540;2023-03-15T04:08:46;3.80;;;1.53;;
13303;SDS011;6720;51.958;4.540;2023-03-15T04:11:12;2.73;;;1.77;;
13303;SDS011;6720;51.958;4.540;2023-03-15T04:13:41;1.80;;;1.70;;
13303;SDS011;6720;51.958;4.540;2023-03-15T04:16:08;3.53;;;2.07;;
13303;SDS011;6720;51.958;4.540;2023-03-15T04:18:33;2.80;;;2.00;;
13303;SDS011;6720;51.958;4.540;2023-03-15T04:20:59;3.40;;;1.80;;
13303;SDS011;6720;51.958;4.540;2023-03-15T04:23:24;3.73;;;2.10;;
13303;SDS011;6720;51.958;4.540;2023-03-15T04:25:50;3.90;;;1.70;;
13303;SDS011;6720;51.958;4.540;2023-03-15T04:28:17;5.20;;;1.93;;
13303;SDS011;6720;51.958;4.540;2023-03-15T04:30:43;2.97;;;1.90;;
13303;SDS011;6720;51.958;4.540;2023-03-15T04:33:09;2.30;;;1.80;;
13303;SDS011;6720;51.958;4.540;2023-03-15T04:35:35;5.97;;;2.23;;
13303;SDS011;6720;51.958;4.540;2023-03-15T04:38:02;2.73;;;1.90;;
13303;SDS011;6720;51.958;4.540;2023-03-15T04:40:29;5.30;;;2.00;;
13303;SDS011;6720;51.958;4.540;2023-03-15T04:43:02;3.80;;;2.00;;
13303;SDS011;6720;51.958;4.540;2023-03-15T04:45:29;3.47;;;2.00;;
13303;SDS011;6720;51.958;4.540;2023-03-15T04:47:56;4.47;;;2.17;;
13303;SDS011;6720;51.958;4.540;2023-03-15T04:50:22;4.00;;;2.17;;
13303;SDS011;6720;51.958;4.540;2023-03-15T04:52:48;3.93;;;2.27;;
13303;SDS011;6720;51.958;4.540;2023-03-15T04:55:15;4.07;;;2.40;;
13303;SDS011;6720;51.958;4.540;2023-03-15T04:57:40;5.13;;;2.33;;
13303;SDS011;6720;51.958;4.540;2023-03-15T05:00:06;3.80;;;2.10;;
13303;SDS011;6720;51.958;4.540;2023-03-15T05:02:35;4.50;;;2.13;;
13303;SDS011;6720;51.958;4.540;2023-03-15T05:05:07;4.70;;;2.30;;
13303;SDS011;6720;51.958;4.540;2023-03-15T05:07:33;4.20;;;2.13;;
13303;SDS011;6720;51.958;4.540;2023-03-15T05:10:00;5.40;;;2.47;;
13303;SDS011;6720;51.958;4.540;2023-03-15T05:12:25;4.03;;;1.80;;
13303;SDS011;6720;51.958;4.540;2023-03-15T05:14:51;3.93;;;1.70;;
13303;SDS011;6720;51.958;4.540;2023-03-15T05:17:17;5.60;;;2.10;;
13303;SDS011;6720;51.958;4.540;2023-03-15T05:19:42;5.47;;;2.47;;
13303;SDS011;6720;51.958;4.540;2023-03-15T05:22:08;3.33;;;2.03;;
13303;SDS011;6720;51.958;4.540;2023-03-15T05:24:35;5.20;;;2.20;;
13303;SDS011;6720;51.958;4.540;2023-03-15T05:27:00;4.63;;;2.13;;
13303;SDS011;6720;51.958;4.540;2023-03-15T05:29:26;3.17;;;2.00;;
13303;SDS011;6720;51.958;4.540;2023-03-15T05:31:51;5.50;;;2.57;;
13303;SDS011;6720;51.958;4.540;2023-03-15T05:34:17;4.53;;;2.83;;
13303;SDS011;6720;51.958;4.540;2023-03-15T05:36:43;6.43;;;2.90;;
13303;SDS011;6720;51.958;4.540;2023-03-15T05:39:09;6.97;;;2.83;;
13303;SDS011;6720;51.958;4.540;2023-03-15T05:41:36;4.17;;;2.30;;
13303;SDS011;6720;51.958;4.540;2023-03-15T05:44:01;5.63;;;2.63;;
13303;SDS011;6720;51.958;4.540;2023-03-15T05:46:27;8.50;;;2.97;;
13303;SDS011;6720;51.958;4.540;2023-03-15T05:48:52;3.87;;;2.40;;
13303;SDS011;6720;51.958;4.540;2023-03-15T05:51:18;5.27;;;2.50;;
13303;SDS011;6720;51.958;4.540;2023-03-15T05:53:45;5.17;;;2.63;;
13303;SDS011;6720;51.958;4.540;2023-03-15T05:56:10;7.63;;;2.90;;
13303;SDS011;6720;51.958;4.540;2023-03-15T05:58:35;6.37;;;2.80;;
13303;SDS011;6720;51.958;4.540;2023-03-15T06:01:02;4.73;;;2.40;;
13303;SDS011;6720;51.958;4.540;2023-03-15T06:03:28;6.63;;;2.80;;
13303;SDS011;6720;51.958;4.540;2023-03-15T06:05:55;10.23;;;3.00;;
13303;SDS011;6720;51.958;4.540;2023-03-15T06:08:21;10.50;;;3.40;;
13303;SDS011;6720;51.958;4.540;2023-03-15T06:10:47;6.33;;;2.93;;
13303;SDS011;6720;51.958;4.540;2023-03-15T06:13:12;7.63;;;3.17;;
13303;SDS011;6720;51.958;4.540;2023-03-15T06:15:37;6.10;;;3.37;;
13303;SDS011;6720;51.958;4.540;2023-03-15T06:18:03;8.20;;;3.27;;
13303;SDS011;6720;51.958;4.540;2023-03-15T06:20:29;6.93;;;3.03;;
13303;SDS011;6720;51.958;4.540;2023-03-15T06:22:55;11.30;;;3.50;;
13303;SDS011;6720;51.958;4.540;2023-03-15T06:25:21;9.40;;;3.07;;
13303;SDS011;6720;51.958;4.540;2023-03-15T06:27:47;9.60;;;3.33;;
13303;SDS011;6720;51.958;4.540;2023-03-15T06:30:13;8.63;;;3.77;;
13303;SDS011;6720;51.958;4.540;2023-03-15T06:32:39;5.93;;;3.13;;
13303;SDS011;6720;51.958;4.540;2023-03-15T06:35:05;7.90;;;3.50;;
13303;SDS011;6720;51.958;4.540;2023-03-15T06:37:32;9.33;;;3.10;;
13303;SDS011;6720;51.958;4.540;2023-03-15T06:39:59;9.00;;;3.07;;
13303;SDS011;6720;51.958;4.540;2023-03-15T06:42:26;7.30;;;3.30;;
13303;SDS011;6720;51.958;4.540;2023-03-15T06:44:52;9.70;;;3.70;;
13303;SDS011;6720;51.958;4.540;2023-03-15T06:47:17;8.03;;;3.83;;
13303;SDS011;6720;51.958;4.540;2023-03-15T06:49:43;7.20;;;3.83;;
13303;SDS011;6720;51.958;4.540;2023-03-15T06:52:08;13.70;;;4.03;;
13303;SDS011;6720;51.958;4.540;2023-03-15T06:54:34;8.07;;;3.67;;
13303;SDS011;6720;51.958;4.540;2023-03-15T06:56:59;6.73;;;3.60;;
13303;SDS011;6720;51.958;4.540;2023-03-15T06:59:25;6.70;;;3.47;;
13303;SDS011;6720;51.958;4.540;2023-03-15T07:01:50;10.33;;;3.57;;
13303;SDS011;6720;51.958;4.540;2023-03-15T07:04:18;9.70;;;3.73;;
13303;SDS011;6720;51.958;4.540;2023-03-15T07:06:43;7.97;;;4.07;;
13303;SDS011;6720;51.958;4.540;2023-03-15T07:09:08;11.43;;;4.30;;
13303;SDS011;6720;51.958;4.540;2023-03-15T07:11:34;6.40;;;3.10;;
13303;SDS011;6720;51.958;4.540;2023-03-15T07:13:59;6.97;;;3.27;;
13303;SDS011;6720;51.958;4.540;2023-03-15T07:16:25;6.00;;;3.30;;
13303;SDS011;6720;51.958;4.540;2023-03-15T07:18:50;6.57;;;3.30;;
13303;SDS011;6720;51.958;4.540;2023-03-15T07:21:19;6.03;;;3.83;;
13303;SDS011;6720;51.958;4.540;2023-03-15T07:23:45;7.13;;;3.60;;
13303;SDS011;6720;51.958;4.540;2023-03-15T07:26:10;8.77;;;3.50;;
13303;SDS011;6720;51.958;4.540;2023-03-15T07:28:35;9.30;;;3.20;;
13303;SDS011;6720;51.958;4.540;2023-03-15T07:31:01;7.57;;;3.30;;
13303;SDS011;6720;51.958;4.540;2023-03-15T07:33:29;9.77;;;3.23;;
13303;SDS011;6720;51.958;4.540;2023-03-15T07:35:56;7.07;;;3.40;;
13303;SDS011;6720;51.958;4.540;2023-03-15T07:38:22;9.47;;;3.40;;
13303;SDS011;6720;51.958;4.540;2023-03-15T07:40:48;8.00;;;3.80;;
13303;SDS011;6720;51.958;4.540;2023-03-15T07:43:14;12.77;;;4.83;;
13303;SDS011;6720;51.958;4.540;2023-03-15T07:45:39;8.23;;;3.00;;
13303;SDS011;6720;51.958;4.540;2023-03-15T07:48:06;5.67;;;3.30;;
13303;SDS011;6720;51.958;4.540;2023-03-15T07:50:31;9.73;;;3.33;;
13303;SDS011;6720;51.958;4.540;2023-03-15T07:52:57;6.40;;;3.00;;
13303;SDS011;6720;51.958;4.540;2023-03-15T07:55:22;10.00;;;2.80;;
13303;SDS011;6720;51.958;4.540;2023-03-15T07:57:49;7.40;;;2.97;;
13303;SDS011;6720;51.958;4.540;2023-03-15T08:00:15;8.67;;;3.03;;
13303;SDS011;6720;51.958;4.540;2023-03-15T08:02:41;10.00;;;3.93;;
13303;SDS011;6720;51.958;4.540;2023-03-15T08:05:06;8.03;;;3.27;;
13303;SDS011;6720;51.958;4.540;2023-03-15T08:07:32;9.53;;;3.10;;
13303;SDS011;6720;51.958;4.540;2023-03-15T08:09:58;9.40;;;3.60;;
13303;SDS011;6720;51.958;4.540;2023-03-15T08:12:24;10.23;;;3.07;;
13303;SDS011;6720;51.958;4.540;2023-03-15T08:14:49;9.63;;;3.00;;
13303;SDS011;6720;51.958;4.540;2023-03-15T08:17:15;7.67;;;2.77;;
13303;SDS011;6720;51.958;4.540;2023-03-15T08:19:42;6.30;;;2.87;;
13303;SDS011;6720;51.958;4.540;2023-03-15T08:22:08;8.73;;;3.00;;
13303;SDS011;6720;51.958;4.540;2023-03-15T08:24:34;13.73;;;3.60;;
13303;SDS011;6720;51.958;4.540;2023-03-15T08:27:00;8.83;;;3.90;;
13303;SDS011;6720;51.958;4.540;2023-03-15T08:29:25;7.17;;;3.00;;
13303;SDS011;6720;51.958;4.540;2023-03-15T08:31:52;8.73;;;2.70;;
13303;SDS011;6720;51.958;4.540;2023-03-15T08:34:17;11.13;;;3.77;;
13303;SDS011;6720;51.958;4.540;2023-03-15T08:36:44;10.87;;;2.77;;
13303;SDS011;6720;51.958;4.540;2023-03-15T08:39:11;4.57;;;2.80;;
13303;SDS011;6720;51.958;4.540;2023-03-15T08:41:37;6.57;;;3.17;;
13303;SDS011;6720;51.958;4.540;2023-03-15T08:44:02;6.57;;;2.93;;
13303;SDS011;6720;51.958;4.540;2023-03-15T08:46:28;6.17;;;2.50;;
13303;SDS011;6720;51.958;4.540;2023-03-15T08:48:54;8.63;;;3.07;;
13303;SDS011;6720;51.958;4.540;2023-03-15T08:51:19;6.13;;;2.60;;
13303;SDS011;6720;51.958;4.540;2023-03-15T08:53:46;6.80;;;2.40;;
13303;SDS011;6720;51.958;4.540;2023-03-15T08:56:12;10.13;;;3.67;;
13303;SDS011;6720;51.958;4.540;2023-03-15T08:58:37;6.10;;;2.60;;
13303;SDS011;6720;51.958;4.540;2023-03-15T09:01:03;6.50;;;2.63;;
13303;SDS011;6720;51.958;4.540;2023-03-15T09:03:31;9.93;;;3.07;;
13303;SDS011;6720;51.958;4.540;2023-03-15T09:05:57;5.53;;;2.83;;
13303;SDS011;6720;51.958;4.540;2023-03-15T09:08:23;7.60;;;2.90;;
13303;SDS011;6720;51.958;4.540;2023-03-15T09:10:55;5.60;;;2.67;;
13303;SDS011;6720;51.958;4.540;2023-03-15T09:13:21;7.10;;;2.53;;
13303;SDS011;6720;51.958;4.540;2023-03-15T09:15:51;6.97;;;3.50;;
13303;SDS011;6720;51.958;4.540;2023-03-15T09:18:17;8.10;;;2.57;;
13303;SDS011;6720;51.958;4.540;2023-03-15T09:20:45;6.00;;;2.53;;
13303;SDS011;6720;51.958;4.540;2023-03-15T09:23:11;6.77;;;2.70;;
13303;SDS011;6720;51.958;4.540;2023-03-15T09:25:37;7.13;;;3.10;;
13303;SDS011;6720;51.958;4.540;2023-03-15T09:28:03;5.63;;;3.20;;
13303;SDS011;6720;51.958;4.540;2023-03-15T09:30:29;7.10;;;2.77;;
13303;SDS011;6720;51.958;4.540;2023-03-15T09:32:55;3.60;;;2.37;;
13303;SDS011;6720;51.958;4.540;2023-03-15T09:35:20;7.40;;;2.67;;
13303;SDS011;6720;51.958;4.540;2023-03-15T09:37:46;9.27;;;2.67;;
13303;SDS011;6720;51.958;4.540;2023-03-15T09:40:17;6.13;;;2.40;;
13303;SDS011;6720;51.958;4.540;2023-03-15T09:42:54;6.33;;;2.43;;
13303;SDS011;6720;51.958;4.540;2023-03-15T09:48:03;5.40;;;2.23;;
13303;SDS011;6720;51.958;4.540;2023-03-15T09:50:34;6.80;;;2.13;;
13303;SDS011;6720;51.958;4.540;2023-03-15T09:53:16;7.97;;;2.87;;
13303;SDS011;6720;51.958;4.540;2023-03-15T09:55:45;4.37;;;2.03;;
13303;SDS011;6720;51.958;4.540;2023-03-15T10:01:05;7.20;;;2.33;;
13303;SDS011;6720;51.958;4.540;2023-03-15T10:06:46;7.00;;;2.33;;
13303;SDS011;6720;51.958;4.540;2023-03-15T10:09:11;7.07;;;2.77;;
13303;SDS011;6720;51.958;4.540;2023-03-15T10:20:01;9.60;;;3.37;;
13303;SDS011;6720;51.958;4.540;2023-03-15T10:22:46;5.77;;;2.90;;
13303;SDS011;6720;51.958;4.540;2023-03-15T10:25:20;6.83;;;2.77;;
13303;SDS011;6720;51.958;4.540;2023-03-15T10:27:58;6.87;;;2.93;;
13303;SDS011;6720;51.958;4.540;2023-03-15T10:30:36;5.83;;;2.97;;
13303;SDS011;6720;51.958;4.540;2023-03-15T10:33:14;7.93;;;2.83;;
13303;SDS011;6720;51.958;4.540;2023-03-15T10:35:44;6.20;;;2.80;;
13303;SDS011;6720;51.958;4.540;2023-03-15T10:38:17;8.10;;;2.50;;
13303;SDS011;6720;51.958;4.540;2023-03-15T10:43:26;7.57;;;2.20;;
13303;SDS011;6720;51.958;4.540;2023-03-15T10:48:30;5.60;;;2.57;;
13303;SDS011;6720;51.958;4.540;2023-03-15T10:51:15;6.60;;;2.40;;
13303;SDS011;6720;51.958;4.540;2023-03-15T10:54:18;4.00;;;2.53;;
13303;SDS011;6720;51.958;4.540;2023-03-15T10:56:50;5.20;;;2.23;;
13303;SDS011;6720;51.958;4.540;2023-03-15T10:59:25;4.43;;;2.03;;
13303;SDS011;6720;51.958;4.540;2023-03-15T11:04:37;6.07;;;2.10;;
13303;SDS011;6720;51.958;4.540;2023-03-15T11:07:06;7.13;;;2.37;;
13303;SDS011;6720;51.958;4.540;2023-03-15T11:12:28;6.87;;;2.20;;
13303;SDS011;6720;51.958;4.540;2023-03-15T11:17:45;3.53;;;1.97;;
13303;SDS011;6720;51.958;4.540;2023-03-15T11:20:46;4.30;;;1.90;;
13303;SDS011;6720;51.958;4.540;2023-03-15T11:23:15;4.27;;;1.90;;
13303;SDS011;6720;51.958;4.540;2023-03-15T11:25:50;6.13;;;2.00;;
13303;SDS011;6720;51.958;4.540;2023-03-15T11:28:17;4.60;;;2.40;;
13303;SDS011;6720;51.958;4.540;2023-03-15T11:30:46;5.10;;;1.63;;
13303;SDS011;6720;51.958;4.540;2023-03-15T11:33:18;6.07;;;1.97;;
13303;SDS011;6720;51.958;4.540;2023-03-15T11:35:58;2.97;;;1.80;;
13303;SDS011;6720;51.958;4.540;2023-03-15T11:38:30;6.33;;;2.30;;
13303;SDS011;6720;51.958;4.540;2023-03-15T11:40:59;4.33;;;1.90;;
13303;SDS011;6720;51.958;4.540;2023-03-15T11:46:51;4.53;;;1.80;;
13303;SDS011;6720;51.958;4.540;2023-03-15T11:49:30;5.00;;;1.87;;
13303;SDS011;6720;51.958;4.540;2023-03-15T11:52:00;5.13;;;2.27;;
13303;SDS011;6720;51.958;4.540;2023-03-15T11:54:30;5.33;;;2.10;;
13303;SDS011;6720;51.958;4.540;2023-03-15T11:57:03;3.43;;;1.80;;
13303;SDS011;6720;51.958;4.540;2023-03-15T11:59:31;4.67;;;2.10;;
13303;SDS011;6720;51.958;4.540;2023-03-15T12:04:38;6.13;;;2.00;;
13303;SDS011;6720;51.958;4.540;2023-03-15T12:09:44;3.67;;;1.73;;
13303;SDS011;6720;51.958;4.540;2023-03-15T12:22:53;3.60;;;2.00;;
13303;SDS011;6720;51.958;4.540;2023-03-15T12:25:38;6.17;;;1.93;;
13303;SDS011;6720;51.958;4.540;2023-03-15T12:31:26;4.23;;;2.03;;
13303;SDS011;6720;51.958;4.540;2023-03-15T12:34:12;4.00;;;2.07;;
13303;SDS011;6720;51.958;4.540;2023-03-15T12:36:40;3.10;;;1.87;;
13303;SDS011;6720;51.958;4.540;2023-03-15T12:41:40;3.10;;;1.60;;
13303;SDS011;6720;51.958;4.540;2023-03-15T12:49:27;2.67;;;1.50;;
13303;SDS011;6720;51.958;4.540;2023-03-15T12:54:21;2.63;;;1.80;;
13303;SDS011;6720;51.958;4.540;2023-03-15T12:56:55;3.00;;;1.87;;
13303;SDS011;6720;51.958;4.540;2023-03-15T12:59:31;4.10;;;1.90;;
13303;SDS011;6720;51.958;4.540;2023-03-15T13:01:58;3.10;;;1.93;;
13303;SDS011;6720;51.958;4.540;2023-03-15T13:04:27;6.43;;;1.87;;
13303;SDS011;6720;51.958;4.540;2023-03-15T13:13:09;2.80;;;1.87;;
13303;SDS011;6720;51.958;4.540;2023-03-15T13:18:19;5.63;;;2.00;;
13303;SDS011;6720;51.958;4.540;2023-03-15T13:23:50;4.87;;;1.90;;
13303;SDS011;6720;51.958;4.540;2023-03-15T13:26:32;4.50;;;1.70;;
13303;SDS011;6720;51.958;4.540;2023-03-15T13:29:11;4.37;;;1.87;;
13303;SDS011;6720;51.958;4.540;2023-03-15T13:31:39;4.57;;;2.20;;
13303;SDS011;6720;51.958;4.540;2023-03-15T13:34:20;2.57;;;1.80;;
13303;SDS011;6720;51.958;4.540;2023-03-15T13:36:52;2.13;;;1.80;;
13303;SDS011;6720;51.958;4.540;2023-03-15T13:39:21;3.07;;;1.80;;
13303;SDS011;6720;51.958;4.540;2023-03-15T13:41:58;4.20;;;1.83;;
13303;SDS011;6720;51.958;4.540;2023-03-15T13:44:24;2.70;;;1.83;;
13303;SDS011;6720;51.958;4.540;2023-03-15T13:46:54;3.00;;;1.93;;
13303;SDS011;6720;51.958;4.540;2023-03-15T13:49:20;3.27;;;1.77;;
13303;SDS011;6720;51.958;4.540;2023-03-15T13:51:47;4.80;;;1.80;;
13303;SDS011;6720;51.958;4.540;2023-03-15T13:59:10;2.73;;;1.63;;
13303;SDS011;6720;51.958;4.540;2023-03-15T14:01:37;3.07;;;1.70;;
13303;SDS011;6720;51.958;4.540;2023-03-15T14:04:07;2.90;;;1.80;;
13303;SDS011;6720;51.958;4.540;2023-03-15T14:06:38;4.00;;;1.60;;
13303;SDS011;6720;51.958;4.540;2023-03-15T14:09:08;3.37;;;1.63;;
13303;SDS011;6720;51.958;4.540;2023-03-15T14:11:40;3.50;;;1.80;;
13303;SDS011;6720;51.958;4.540;2023-03-15T14:14:24;1.87;;;1.47;;
13303;SDS011;6720;51.958;4.540;2023-03-15T14:16:52;4.33;;;1.90;;
13303;SDS011;6720;51.958;4.540;2023-03-15T14:19:22;2.87;;;1.70;;
13303;SDS011;6720;51.958;4.540;2023-03-15T14:21:53;2.63;;;1.80;;
13303;SDS011;6720;51.958;4.540;2023-03-15T14:24:32;5.07;;;1.90;;
13303;SDS011;6720;51.958;4.540;2023-03-15T14:27:13;2.93;;;1.80;;
13303;SDS011;6720;51.958;4.540;2023-03-15T14:29:51;2.90;;;1.90;;
13303;SDS011;6720;51.958;4.540;2023-03-15T14:32:24;3.20;;;1.60;;
13303;SDS011;6720;51.958;4.540;2023-03-15T14:35:45;4.03;;;1.90;;
13303;SDS011;6720;51.958;4.540;2023-03-15T14:40:38;4.77;;;1.90;;
13303;SDS011;6720;51.958;4.540;2023-03-15T14:43:05;5.27;;;1.80;;
13303;SDS011;6720;51.958;4.540;2023-03-15T14:45:32;3.10;;;1.77;;
13303;SDS011;6720;51.958;4.540;2023-03-15T14:48:04;2.50;;;1.77;;
13303;SDS011;6720;51.958;4.540;2023-03-15T14:50:36;3.23;;;1.70;;
13303;SDS011;6720;51.958;4.540;2023-03-15T14:53:03;3.07;;;1.80;;
13303;SDS011;6720;51.958;4.540;2023-03-15T14:55:32;2.77;;;1.67;;
13303;SDS011;6720;51.958;4.540;2023-03-15T14:58:03;2.87;;;1.70;;
13303;SDS011;6720;51.958;4.540;2023-03-15T15:00:34;2.63;;;1.63;;
13303;SDS011;6720;51.958;4.540;2023-03-15T15:03:00;4.43;;;1.73;;
13303;SDS011;6720;51.958;4.540;2023-03-15T15:05:27;2.80;;;1.70;;
13303;SDS011;6720;51.958;4.540;2023-03-15T15:08:02;3.57;;;1.90;;
13303;SDS011;6720;51.958;4.540;2023-03-15T15:10:31;4.40;;;1.90;;
13303;SDS011;6720;51.958;4.540;2023-03-15T15:12:58;3.10;;;1.80;;
13303;SDS011;6720;51.958;4.540;2023-03-15T15:15:24;2.33;;;1.60;;
13303;SDS011;6720;51.958;4.540;2023-03-15T15:17:49;2.50;;;1.70;;
13303;SDS011;6720;51.958;4.540;2023-03-15T15:20:17;3.43;;;1.67;;
13303;SDS011;6720;51.958;4.540;2023-03-15T15:22:46;3.40;;;1.73;;
13303;SDS011;6720;51.958;4.540;2023-03-15T15:25:19;2.60;;;1.80;;
13303;SDS011;6720;51.958;4.540;2023-03-15T15:27:46;2.77;;;1.77;;
13303;SDS011;6720;51.958;4.540;2023-03-15T15:30:17;2.80;;;1.80;;
13303;SDS011;6720;51.958;4.540;2023-03-15T15:32:45;4.13;;;2.07;;
13303;SDS011;6720;51.958;4.540;2023-03-15T15:35:12;2.20;;;2.00;;
13303;SDS011;6720;51.958;4.540;2023-03-15T15:37:40;2.70;;;2.20;;
13303;SDS011;6720;51.958;4.540;2023-03-15T15:40:10;3.13;;;2.40;;
13303;SDS011;6720;51.958;4.540;2023-03-15T15:42:39;3.87;;;2.20;;
13303;SDS011;6720;51.958;4.540;2023-03-15T15:45:07;4.07;;;2.70;;
13303;SDS011;6720;51.958;4.540;2023-03-15T15:47:37;4.23;;;2.70;;
13303;SDS011;6720;51.958;4.540;2023-03-15T15:50:02;4.60;;;2.93;;
13303;SDS011;6720;51.958;4.540;2023-03-15T15:52:28;3.27;;;2.90;;
13303;SDS011;6720;51.958;4.540;2023-03-15T15:54:53;4.20;;;2.83;;
13303;SDS011;6720;51.958;4.540;2023-03-15T15:57:19;7.03;;;4.77;;
13303;SDS011;6720;51.958;4.540;2023-03-15T15:59:46;3.07;;;2.77;;
13303;SDS011;6720;51.958;4.540;2023-03-15T16:02:12;4.27;;;3.10;;
13303;SDS011;6720;51.958;4.540;2023-03-15T16:04:41;4.03;;;2.90;;
13303;SDS011;6720;51.958;4.540;2023-03-15T16:07:07;6.23;;;3.73;;
13303;SDS011;6720;51.958;4.540;2023-03-15T16:09:34;3.90;;;3.03;;
13303;SDS011;6720;51.958;4.540;2023-03-15T16:12:01;3.90;;;3.30;;
13303;SDS011;6720;51.958;4.540;2023-03-15T16:14:35;3.77;;;2.90;;
13303;SDS011;6720;51.958;4.540;2023-03-15T16:17:00;4.13;;;3.30;;
13303;SDS011;6720;51.958;4.540;2023-03-15T16:19:25;4.63;;;3.47;;
13303;SDS011;6720;51.958;4.540;2023-03-15T16:21:51;3.73;;;3.10;;
13303;SDS011;6720;51.958;4.540;2023-03-15T16:26:43;5.20;;;3.30;;
13303;SDS011;6720;51.958;4.540;2023-03-15T16:29:15;5.10;;;3.47;;
13303;SDS011;6720;51.958;4.540;2023-03-15T16:31:45;3.60;;;3.10;;
13303;SDS011;6720;51.958;4.540;2023-03-15T16:34:12;3.47;;;3.17;;
13303;SDS011;6720;51.958;4.540;2023-03-15T16:36:42;3.77;;;3.47;;
13303;SDS011;6720;51.958;4.540;2023-03-15T16:39:09;3.73;;;3.10;;
13303;SDS011;6720;51.958;4.540;2023-03-15T16:41:37;4.20;;;3.30;;
13303;SDS011;6720;51.958;4.540;2023-03-15T16:44:13;3.90;;;3.13;;
13303;SDS011;6720;51.958;4.540;2023-03-15T16:46:40;6.30;;;3.60;;
13303;SDS011;6720;51.958;4.540;2023-03-15T16:49:07;4.57;;;3.60;;